createdAt,value
2019-04-07T00:00:38.126Z,83.10
2019-04-07T00:03:07.973Z,82.90
2019-04-07T00:05:37.731Z,82.90
2019-04-07T00:08:06.820Z,82.70
2019-04-07T00:10:35.633Z,82.80
2019-04-07T00:13:05.204Z,82.60
2019-04-07T00:15:34.759Z,82.30
2019-04-07T00:18:03.643Z,82.50
2019-04-07T00:20:32.909Z,82.60
2019-04-07T00:23:02.188Z,83.00
2019-04-07T00:25:31.005Z,82.90
2019-04-07T00:27:59.744Z,82.90
2019-04-07T00:30:29.239Z,82.70
2019-04-07T00:32:58.419Z,82.40
2019-04-07T00:35:31.993Z,82.50
2019-04-07T00:37:58.273Z,82.90
2019-04-07T00:40:27.166Z,82.90
2019-04-07T00:42:55.931Z,82.90
2019-04-07T00:45:25.150Z,82.90
2019-04-07T00:47:54.322Z,82.80
2019-04-07T00:50:23.360Z,82.70
2019-04-07T00:52:53.007Z,82.50
2019-04-07T00:55:22.126Z,82.30
2019-04-07T00:57:51.663Z,82.30
2019-04-07T01:00:24.908Z,82.60
2019-04-07T01:02:54.116Z,82.50
2019-04-07T01:05:34.749Z,82.50
2019-04-07T01:07:54.254Z,82.80
2019-04-07T01:10:23.275Z,82.80
2019-04-07T01:12:52.234Z,82.80
2019-04-07T01:15:21.037Z,82.90
2019-04-07T01:17:49.922Z,83.00
2019-04-07T01:20:19.422Z,82.70
2019-04-07T01:22:48.721Z,82.70
2019-04-07T01:25:17.685Z,83.20
2019-04-07T01:27:46.671Z,82.80
2019-04-07T01:30:16.063Z,82.60
2019-04-07T01:32:48.326Z,82.70
2019-04-07T01:35:18.876Z,82.90
2019-04-07T01:37:47.654Z,82.80
2019-04-07T01:40:16.852Z,82.90
2019-04-07T01:42:53.002Z,82.80
2019-04-07T01:45:44.566Z,82.80
2019-04-07T01:48:31.648Z,82.80
2019-04-07T01:51:34.930Z,83.00
2019-04-07T01:54:17.567Z,83.10
2019-04-07T01:56:54.199Z,83.40
2019-04-07T01:59:40.934Z,83.50
2019-04-07T02:02:32.448Z,83.60
2019-04-07T02:05:19.860Z,83.20
2019-04-07T02:08:07.931Z,83.50
2019-04-07T02:10:49.606Z,83.70
2019-04-07T02:13:27.506Z,84.00
2019-04-07T02:16:15.703Z,84.20
2019-04-07T02:19:09.633Z,84.00
2019-04-07T02:21:56.624Z,84.20
2019-04-07T02:24:33.401Z,84.60
2019-04-07T02:27:18.261Z,84.80
2019-04-07T02:30:05.892Z,84.80
2019-04-07T02:32:42.183Z,84.90
2019-04-07T02:35:33.311Z,84.80
2019-04-07T02:38:14.550Z,85.10
2019-04-07T02:40:56.973Z,85.20
2019-04-07T02:43:36.598Z,85.50
2019-04-07T02:46:20.638Z,85.30
2019-04-07T02:48:58.675Z,85.30
2019-04-07T02:51:58.546Z,85.30
2019-04-07T02:54:59.248Z,85.20
2019-04-07T02:57:40.509Z,85.20
2019-04-07T03:00:27.904Z,85.20
2019-04-07T03:03:14.678Z,85.10
2019-04-07T03:06:03.519Z,85.30
2019-04-07T03:08:52.613Z,85.40
2019-04-07T03:11:37.740Z,85.80
2019-04-07T03:14:17.816Z,85.80
2019-04-07T03:16:54.302Z,86.10
2019-04-07T03:19:41.341Z,86.00
2019-04-07T03:22:29.183Z,86.00
2019-04-07T03:25:06.618Z,86.10
2019-04-07T03:27:51.578Z,86.10
2019-04-07T03:30:38.604Z,86.10
2019-04-07T03:33:30.053Z,86.40
2019-04-07T03:36:13.815Z,86.20
2019-04-07T03:39:03.529Z,86.60
2019-04-07T03:41:40.945Z,86.70
2019-04-07T03:44:15.019Z,86.60
2019-04-07T03:47:07.245Z,86.80
2019-04-07T03:49:45.666Z,86.80
2019-04-07T03:52:32.261Z,86.70
2019-04-07T03:55:17.172Z,86.90
2019-04-07T03:58:05.274Z,86.70
2019-04-07T04:01:33.680Z,86.70
2019-04-07T04:04:10.262Z,86.90
2019-04-07T04:06:57.469Z,86.90
2019-04-07T04:09:37.941Z,87.30
2019-04-07T04:12:15.844Z,87.10
2019-04-07T04:14:50.838Z,87.60
2019-04-07T04:17:19.922Z,86.90
2019-04-07T04:19:49.580Z,86.80
2019-04-07T04:22:18.788Z,86.80
2019-04-07T04:24:47.673Z,86.70
2019-04-07T04:27:16.990Z,86.40
2019-04-07T04:29:46.552Z,86.20
2019-04-07T04:32:16.661Z,86.10
2019-04-07T04:34:46.630Z,85.90
2019-04-07T04:37:16.649Z,85.90
2019-04-07T04:39:46.438Z,86.00
2019-04-07T04:42:16.004Z,86.30
2019-04-07T04:44:45.673Z,86.20
2019-04-07T04:47:14.638Z,86.30
2019-04-07T04:49:44.518Z,86.40
2019-04-07T04:52:13.909Z,86.80
2019-04-07T04:54:42.816Z,86.80
2019-04-07T04:57:11.733Z,87.60
2019-04-07T04:59:40.636Z,86.70
2019-04-07T05:02:10.577Z,86.50
2019-04-07T05:04:40.030Z,86.40
2019-04-07T05:07:08.841Z,86.40
2019-04-07T05:09:44.027Z,86.30
2019-04-07T05:12:08.421Z,86.20
2019-04-07T05:14:37.760Z,86.10
2019-04-07T05:17:06.563Z,86.40
2019-04-07T05:19:35.594Z,86.20
2019-04-07T05:22:04.962Z,86.30
2019-04-07T05:24:35.021Z,86.30
2019-04-07T05:27:04.415Z,86.20
2019-04-07T05:29:33.962Z,86.30
2019-04-07T05:32:06.829Z,86.30
2019-04-07T05:34:35.701Z,86.20
2019-04-07T05:37:04.467Z,86.10
2019-04-07T05:39:33.126Z,86.20
2019-04-07T05:42:02.285Z,85.90
2019-04-07T05:44:31.051Z,85.70
2019-04-07T05:46:59.728Z,85.50
2019-04-07T05:49:28.523Z,85.50
2019-04-07T05:52:01.381Z,85.20
2019-04-07T05:54:27.629Z,85.20
2019-04-07T05:57:00.337Z,85.10
2019-04-07T05:59:29.591Z,84.60
2019-04-07T06:02:03.948Z,84.50
2019-04-07T06:08:29.180Z,83.30
2019-04-07T06:10:57.520Z,83.90
2019-04-07T06:13:26.241Z,83.70
2019-04-07T06:15:57.525Z,83.80
2019-04-07T06:18:27.005Z,83.40
2019-04-07T06:21:02.916Z,83.40
2019-04-07T06:23:31.848Z,83.30
2019-04-07T06:26:00.972Z,82.90
2019-04-07T06:28:29.723Z,82.80
2019-04-07T06:31:00.781Z,82.80
2019-04-07T06:33:30.473Z,82.70
2019-04-07T06:35:59.553Z,82.60
2019-04-07T06:38:33.086Z,82.40
2019-04-07T06:41:00.901Z,82.00
2019-04-07T06:43:28.965Z,82.10
2019-04-07T06:46:17.448Z,82.00
2019-04-07T06:49:12.348Z,81.60
2019-04-07T06:52:05.242Z,81.90
2019-04-07T06:54:46.043Z,81.70
2019-04-07T06:57:25.465Z,81.00
2019-04-07T07:00:11.844Z,81.20
2019-04-07T07:02:51.604Z,81.10
2019-04-07T07:05:45.371Z,80.90
2019-04-07T07:08:44.511Z,80.60
2019-04-07T07:11:27.501Z,80.80
2019-04-07T07:13:59.274Z,80.70
2019-04-07T07:16:53.281Z,80.90
2019-04-07T07:19:44.578Z,81.00
2019-04-07T07:22:16.625Z,80.80
2019-04-07T07:24:47.141Z,80.60
2019-04-07T07:27:16.587Z,80.20
2019-04-07T07:29:47.493Z,80.20
2019-04-07T07:32:16.927Z,80.10
2019-04-07T07:34:46.619Z,80.30
2019-04-07T07:37:15.837Z,79.70
2019-04-07T07:39:45.212Z,79.50
2019-04-07T07:42:14.787Z,79.30
2019-04-07T07:44:43.893Z,79.20
2019-04-07T07:47:13.337Z,79.40
2019-04-07T07:49:42.425Z,79.30
2019-04-07T07:52:11.605Z,79.30
2019-04-07T07:54:41.064Z,78.30
2019-04-07T07:57:09.919Z,78.00
2019-04-07T07:59:39.633Z,78.20
2019-04-07T08:02:09.814Z,77.60
2019-04-07T08:04:41.316Z,77.10
2019-04-07T08:07:15.484Z,77.70
2019-04-07T08:09:49.212Z,77.10
2019-04-07T08:12:19.007Z,77.00
2019-04-07T08:14:52.186Z,76.70
2019-04-07T08:17:21.153Z,76.20
2019-04-07T08:19:50.246Z,75.90
2019-04-07T08:22:27.609Z,75.60
2019-04-07T08:24:51.890Z,75.20
2019-04-07T08:27:20.557Z,74.00
2019-04-07T08:29:49.334Z,73.00
2019-04-07T08:32:18.675Z,73.20
2019-04-07T08:34:47.978Z,72.70
2019-04-07T08:37:16.657Z,72.60
2019-04-07T08:39:45.988Z,72.70
2019-04-07T08:42:18.507Z,70.90
2019-04-07T08:44:45.191Z,71.00
2019-04-07T08:47:19.161Z,70.60
2019-04-07T08:49:44.340Z,70.00
2019-04-07T08:52:13.009Z,69.90
2019-04-07T08:54:42.168Z,69.20
2019-04-07T08:57:11.003Z,69.60
2019-04-07T08:59:42.373Z,69.60
2019-04-07T09:02:10.327Z,68.60
2019-04-07T09:04:39.947Z,68.70
2019-04-07T09:07:09.065Z,68.60
2019-04-07T09:09:44.844Z,68.80
2019-04-07T09:12:09.275Z,68.40
2019-04-07T09:14:39.849Z,67.80
2019-04-07T09:17:32.121Z,67.40
2019-04-07T09:20:17.920Z,67.20
2019-04-07T09:22:54.564Z,65.60
2019-04-07T09:26:00.169Z,66.20
2019-04-07T09:28:40.689Z,66.30
2019-04-07T09:31:24.748Z,66.00
2019-04-07T09:34:18.936Z,66.10
2019-04-07T09:37:07.674Z,65.50
2019-04-07T09:39:59.503Z,65.90
2019-04-07T09:42:51.707Z,64.50
2019-04-07T09:45:43.659Z,65.20
2019-04-07T09:48:41.289Z,65.30
2019-04-07T09:51:29.795Z,64.10
2019-04-07T09:54:30.220Z,65.20
2019-04-07T09:57:35.472Z,64.10
2019-04-07T10:00:10.425Z,63.40
2019-04-07T10:03:17.017Z,63.30
2019-04-07T10:06:01.560Z,62.30
2019-04-07T10:08:55.476Z,62.50
2019-04-07T10:11:33.884Z,61.70
2019-04-07T10:14:12.944Z,62.10
2019-04-07T10:16:59.554Z,61.00
2019-04-07T10:19:47.820Z,61.50
2019-04-07T10:22:26.638Z,60.60
2019-04-07T10:25:13.221Z,60.30
2019-04-07T10:27:55.518Z,59.40
2019-04-07T10:30:32.381Z,58.70
2019-04-07T10:33:20.177Z,58.40
2019-04-07T10:36:07.901Z,58.00
2019-04-07T10:38:56.487Z,58.50
2019-04-07T10:41:51.308Z,58.30
2019-04-07T10:44:38.141Z,57.70
2019-04-07T10:47:25.900Z,57.60
2019-04-07T10:50:12.633Z,58.00
2019-04-07T10:53:03.764Z,56.20
2019-04-07T10:55:41.297Z,55.70
2019-04-07T10:58:20.860Z,54.70
2019-04-07T11:01:07.564Z,54.00
2019-04-07T11:03:55.642Z,54.00
2019-04-07T11:06:42.010Z,53.90
2019-04-07T11:09:38.942Z,53.90
2019-04-07T11:12:25.420Z,53.10
2019-04-07T11:15:03.449Z,52.80
2019-04-07T11:17:57.117Z,52.00
2019-04-07T11:20:49.468Z,52.20
2019-04-07T11:23:34.834Z,52.30
2019-04-07T11:26:18.070Z,51.40
2019-04-07T11:29:03.560Z,50.20
2019-04-07T11:31:36.998Z,50.50
2019-04-07T11:34:19.382Z,50.40
2019-04-07T11:36:59.535Z,50.40
2019-04-07T11:39:35.141Z,49.70
2019-04-07T11:42:29.686Z,49.10
2019-04-07T11:45:13.813Z,49.30
2019-04-07T11:47:51.451Z,47.40
2019-04-07T11:50:35.104Z,46.90
2019-04-07T11:53:09.087Z,47.00
2019-04-07T11:55:54.012Z,47.40
2019-04-07T11:58:41.967Z,47.50
2019-04-07T12:01:24.058Z,46.20
2019-04-07T12:04:16.034Z,46.30
2019-04-07T12:07:02.503Z,43.80
2019-04-07T12:09:57.043Z,44.40
2019-04-07T12:12:46.208Z,43.60
2019-04-07T12:15:33.796Z,41.50
2019-04-07T12:18:32.878Z,42.50
2019-04-07T12:21:23.261Z,41.60
2019-04-07T12:24:13.547Z,41.60
2019-04-07T12:27:01.963Z,41.60
2019-04-07T12:30:01.191Z,41.50
2019-04-07T12:32:48.637Z,41.50
2019-04-07T12:35:42.928Z,42.70
2019-04-07T12:38:26.349Z,42.50
2019-04-07T12:41:21.697Z,41.70
2019-04-07T12:44:08.418Z,41.20
2019-04-07T12:46:55.740Z,42.20
2019-04-07T12:49:45.519Z,42.60
2019-04-07T12:52:42.145Z,42.70
2019-04-07T12:55:25.071Z,42.40
2019-04-07T12:58:00.948Z,42.50
2019-04-07T13:00:58.255Z,40.60
2019-04-07T13:03:41.720Z,39.80
2019-04-07T13:06:33.272Z,39.00
2019-04-07T13:09:21.500Z,40.00
2019-04-07T13:12:00.867Z,39.30
2019-04-07T13:14:50.236Z,39.90
2019-04-07T13:17:38.108Z,41.00
2019-04-07T13:20:22.346Z,41.40
2019-04-07T13:22:58.959Z,40.70
2019-04-07T13:25:54.441Z,39.70
2019-04-07T13:28:34.057Z,41.00
2019-04-07T13:31:21.992Z,40.90
2019-04-07T13:34:03.122Z,40.90
2019-04-07T13:37:03.453Z,40.70
2019-04-07T13:39:54.485Z,40.90
2019-04-07T13:42:34.253Z,41.30
2019-04-07T13:45:25.280Z,40.80
2019-04-07T13:48:05.431Z,40.80
2019-04-07T13:51:07.659Z,40.40
2019-04-07T13:53:50.168Z,40.80
2019-04-07T13:56:26.517Z,40.70
2019-04-07T13:59:11.377Z,40.80
2019-04-07T14:01:58.048Z,40.90
2019-04-07T14:04:39.674Z,40.40
2019-04-07T14:07:29.543Z,40.80
2019-04-07T14:10:10.212Z,40.90
2019-04-07T14:13:07.483Z,41.10
2019-04-07T14:15:56.479Z,40.30
2019-04-07T14:18:54.477Z,41.00
2019-04-07T14:21:42.946Z,41.30
2019-04-07T14:24:17.019Z,40.00
2019-04-07T14:27:03.249Z,39.20
2019-04-07T14:29:54.831Z,38.80
2019-04-07T14:33:01.344Z,38.20
2019-04-07T14:35:53.337Z,37.50
2019-04-07T14:38:36.703Z,37.40
2019-04-07T14:41:17.166Z,37.60
2019-04-07T14:44:27.012Z,38.00
2019-04-07T14:47:18.656Z,37.80
2019-04-07T14:50:00.590Z,37.00
2019-04-07T14:52:45.767Z,36.50
2019-04-07T14:55:31.160Z,36.50
2019-04-07T14:58:17.506Z,36.50
2019-04-07T15:01:08.394Z,37.20
2019-04-07T15:03:39.629Z,37.80
2019-04-07T15:06:08.735Z,37.90
2019-04-07T15:08:56.342Z,37.10
2019-04-07T15:11:45.541Z,38.00
2019-04-07T15:14:14.887Z,37.50
2019-04-07T15:16:43.940Z,37.20
2019-04-07T15:19:22.304Z,37.80
2019-04-07T15:21:53.898Z,37.90
2019-04-07T15:24:23.973Z,37.60
2019-04-07T15:26:54.739Z,38.30
2019-04-07T15:29:29.941Z,38.10
2019-04-07T15:32:07.479Z,38.00
2019-04-07T15:34:42.159Z,37.70
2019-04-07T15:37:13.134Z,38.20
2019-04-07T15:39:44.558Z,37.90
2019-04-07T15:42:31.423Z,37.40
2019-04-07T15:44:47.265Z,37.60
2019-04-07T15:47:16.860Z,37.40
2019-04-07T15:49:46.452Z,37.10
2019-04-07T15:52:15.195Z,37.90
2019-04-07T15:54:43.923Z,37.60
2019-04-07T15:57:13.174Z,37.50
2019-04-07T15:59:42.499Z,36.90
2019-04-07T16:02:13.312Z,36.40
2019-04-07T16:04:42.175Z,36.40
2019-04-07T16:07:14.501Z,36.50
2019-04-07T16:09:51.021Z,37.50
2019-04-07T16:12:14.515Z,37.20
2019-04-07T16:14:46.474Z,37.00
2019-04-07T16:17:14.486Z,36.80
2019-04-07T16:19:47.669Z,37.00
2019-04-07T16:22:14.654Z,36.90
2019-04-07T16:24:45.122Z,36.30
2019-04-07T16:27:15.081Z,36.60
2019-04-07T16:29:46.110Z,36.20
2019-04-07T16:32:16.008Z,36.50
2019-04-07T16:34:48.028Z,36.70
2019-04-07T16:37:16.807Z,36.20
2019-04-07T16:39:48.751Z,36.10
2019-04-07T16:42:17.465Z,36.10
2019-04-07T16:44:47.045Z,35.70
2019-04-07T16:47:21.054Z,36.70
2019-04-07T16:49:48.814Z,36.20
2019-04-07T16:52:18.848Z,35.70
2019-04-07T16:54:48.327Z,36.50
2019-04-07T16:57:17.317Z,36.40
2019-04-07T16:59:46.764Z,36.60
2019-04-07T17:02:17.917Z,36.50
2019-04-07T17:04:46.471Z,37.40
2019-04-07T17:07:16.840Z,36.30
2019-04-07T17:09:45.687Z,37.20
2019-04-07T17:12:15.024Z,37.30
2019-04-07T17:14:44.822Z,38.50
2019-04-07T17:17:18.300Z,39.70
2019-04-07T17:19:44.435Z,40.40
2019-04-07T17:22:15.692Z,40.90
2019-04-07T17:24:44.236Z,41.60
2019-04-07T17:27:13.115Z,42.20
2019-04-07T17:29:41.928Z,42.70
2019-04-07T17:32:10.934Z,43.10
2019-04-07T17:34:42.101Z,43.50
2019-04-07T17:37:11.741Z,43.80
2019-04-07T17:39:52.940Z,43.90
2019-04-07T17:42:25.831Z,44.10
2019-04-07T17:45:22.510Z,44.50
2019-04-07T17:48:10.199Z,44.80
2019-04-07T17:51:07.076Z,45.10
2019-04-07T17:54:00.574Z,45.30
2019-04-07T17:56:51.735Z,45.10
2019-04-07T17:59:38.926Z,46.10
2019-04-07T18:02:28.071Z,45.70
2019-04-07T18:05:26.523Z,45.90
2019-04-07T18:08:13.054Z,46.30
2019-04-07T18:10:54.090Z,46.70
2019-04-07T18:13:46.001Z,47.00
2019-04-07T18:16:37.856Z,47.10
2019-04-07T18:19:25.169Z,46.80
2019-04-07T18:22:20.466Z,46.80
2019-04-07T18:25:03.556Z,47.00
2019-04-07T18:27:36.968Z,47.40
2019-04-07T18:30:35.834Z,47.60
2019-04-07T18:33:25.807Z,47.80
2019-04-07T18:36:05.682Z,48.20
2019-04-07T18:39:03.395Z,48.50
2019-04-07T18:42:12.029Z,48.70
2019-04-07T18:45:02.394Z,49.00
2019-04-07T18:47:53.890Z,49.80
2019-04-07T18:50:30.745Z,49.30
2019-04-07T18:53:31.825Z,49.40
2019-04-07T18:56:25.281Z,49.50
2019-04-07T18:59:20.206Z,49.40
2019-04-07T19:02:16.278Z,49.40
2019-04-07T19:05:07.092Z,49.70
2019-04-07T19:08:04.081Z,49.90
2019-04-07T19:10:51.477Z,50.00
2019-04-07T19:13:41.337Z,50.10
2019-04-07T19:16:22.094Z,50.10
2019-04-07T19:19:09.428Z,50.40
2019-04-07T19:21:57.288Z,50.80
2019-04-07T19:24:44.098Z,51.60
2019-04-07T19:27:31.455Z,51.10
2019-04-07T19:30:28.015Z,51.40
2019-04-07T19:33:19.184Z,51.40
2019-04-07T19:36:06.031Z,51.50
2019-04-07T19:38:52.964Z,51.30
2019-04-07T19:41:47.256Z,51.40
2019-04-07T19:44:41.604Z,51.50
2019-04-07T19:47:20.551Z,51.60
2019-04-07T19:50:11.277Z,51.60
2019-04-07T19:53:04.975Z,51.50
2019-04-07T19:55:41.700Z,51.60
2019-04-07T19:58:23.276Z,51.50
2019-04-07T20:01:13.071Z,51.60
2019-04-07T20:04:00.021Z,51.60
2019-04-07T20:06:44.109Z,51.50
2019-04-07T20:09:39.495Z,51.40
2019-04-07T20:12:24.954Z,51.40
2019-04-07T20:15:19.992Z,51.70
2019-04-07T20:18:08.389Z,51.70
2019-04-07T20:20:46.646Z,51.70
2019-04-07T20:23:32.824Z,51.80
2019-04-07T20:26:28.388Z,52.00
2019-04-07T20:29:09.359Z,52.30
2019-04-07T20:32:10.973Z,52.20
2019-04-07T20:34:57.804Z,52.10
2019-04-07T20:37:36.778Z,52.00
2019-04-07T20:40:25.803Z,52.00
2019-04-07T20:43:06.411Z,51.80
2019-04-07T20:45:55.876Z,51.50
2019-04-07T20:48:47.790Z,51.40
2019-04-07T20:51:31.583Z,51.40
2019-04-07T20:54:18.355Z,51.40
2019-04-07T20:57:24.830Z,51.60
2019-04-07T21:00:29.565Z,51.80
2019-04-07T21:03:18.176Z,51.70
2019-04-07T21:05:59.858Z,51.90
2019-04-07T21:08:49.456Z,51.90
2019-04-07T21:11:34.381Z,52.00
2019-04-07T21:14:16.053Z,51.90
2019-04-07T21:17:09.413Z,51.80
2019-04-07T21:20:14.478Z,52.00
2019-04-07T21:23:02.875Z,52.20
2019-04-07T21:25:44.483Z,52.00
2019-04-07T21:28:18.831Z,52.20
2019-04-07T21:30:54.076Z,51.90
2019-04-07T21:33:49.630Z,51.60
2019-04-07T21:36:50.621Z,51.60
2019-04-07T21:39:30.306Z,51.70
2019-04-07T21:42:10.357Z,51.80
2019-04-07T21:45:10.930Z,52.20
2019-04-07T21:47:48.252Z,52.30
2019-04-07T21:50:38.379Z,52.50
2019-04-07T21:53:30.622Z,52.60
2019-04-07T21:56:36.948Z,53.50
2019-04-07T21:59:28.466Z,53.10
2019-04-07T22:02:17.400Z,53.60
2019-04-07T22:04:58.674Z,53.50
2019-04-07T22:08:08.759Z,53.50
2019-04-07T22:10:32.280Z,54.10
2019-04-07T22:13:04.121Z,53.50
2019-04-07T22:15:43.009Z,53.60
2019-04-07T22:18:08.952Z,53.50
2019-04-07T22:20:39.098Z,53.60
2019-04-07T22:23:09.659Z,53.50
2019-04-07T22:25:51.130Z,53.70
2019-04-07T22:28:20.891Z,53.70
2019-04-07T22:30:50.885Z,53.60
2019-04-07T22:33:22.915Z,53.70
2019-04-07T22:35:51.315Z,53.70
2019-04-07T22:38:32.049Z,54.00
2019-04-07T22:41:06.776Z,54.00
2019-04-07T22:43:34.969Z,54.00
2019-04-07T22:46:14.746Z,53.90
2019-04-07T22:48:36.464Z,54.00
2019-04-07T22:51:11.943Z,53.90
2019-04-07T22:53:38.930Z,54.20
2019-04-07T22:56:11.820Z,54.20
2019-04-07T22:58:41.038Z,54.30
2019-04-07T23:01:11.216Z,54.40
2019-04-07T23:03:41.143Z,54.40
2019-04-07T23:06:10.667Z,54.60
2019-04-07T23:08:41.142Z,54.60
2019-04-07T23:11:11.965Z,54.60
2019-04-07T23:13:40.922Z,54.70
2019-04-07T23:16:13.874Z,54.60
2019-04-07T23:18:40.543Z,54.70
2019-04-07T23:21:12.075Z,54.60
2019-04-07T23:23:42.272Z,54.90
2019-04-07T23:26:11.045Z,54.80
2019-04-07T23:28:40.227Z,54.90
2019-04-07T23:31:09.640Z,54.80
2019-04-07T23:33:39.043Z,54.80
2019-04-07T23:36:07.968Z,54.90
2019-04-07T23:38:37.148Z,54.70
2019-04-07T23:41:06.016Z,54.90
2019-04-07T23:43:35.537Z,54.90
2019-04-07T23:46:18.784Z,55.10
2019-04-07T23:48:40.447Z,55.20
2019-04-07T23:51:10.224Z,55.20
2019-04-07T23:54:08.662Z,55.30
2019-04-07T23:56:39.184Z,55.40
2019-04-07T23:59:08.356Z,55.50
